Time;durP1;ratioP1;P1;durP2;ratioP2;P2;SDS_P1;SDS_P2;PMS_P1;PMS_P2;Temp;Humidity;BMP_temperature;BMP_pressure;BME280_temperature;BME280_humidity;BME280_pressure;Samples;Min_cycle;Max_cycle;Signal;HPM_P1;HPM_P2
2023/09/01 00:01:15;;;;;;;2.92;1.75;;;;;16.90;98282.00;;;;5090088;28;20044;-68
2023/09/01 00:04:01;;;;;;;2.13;1.73;;;;;17.00;98278.00;;;;5092255;28;20055;-68
2023/09/01 00:06:27;;;;;;;2.58;2.05;;;;;16.90;98271.00;;;;5091681;28;20093;-67
2023/09/01 00:08:54;;;;;;;4.53;2.40;;;;;16.90;98269.00;;;;5093732;28;20044;-67
2023/09/01 00:11:20;;;;;;;2.85;2.10;;;;;17.00;98268.00;;;;5095047;28;20043;-67
2023/09/01 00:13:48;;;;;;;3.70;2.40;;;;;16.90;98265.00;;;;5093976;28;20168;-67
2023/09/01 00:16:14;;;;;;;3.05;1.98;;;;;16.90;98274.00;;;;5095251;28;20052;-67
2023/09/01 00:18:41;;;;;;;2.20;2.05;;;;;16.80;98263.00;;;;5095070;28;20040;-67
2023/09/01 00:21:08;;;;;;;3.55;1.98;;;;;16.80;98261.00;;;;5094718;28;20386;-67
2023/09/01 00:23:35;;;;;;;2.17;1.98;;;;;16.80;98269.00;;;;5094982;28;20051;-67
2023/09/01 00:26:01;;;;;;;3.00;1.80;;;;;16.90;98258.00;;;;5094731;28;20052;-67
2023/09/01 00:28:28;;;;;;;2.65;1.67;;;;;16.80;98259.00;;;;5094850;28;20140;-67
2023/09/01 00:30:59;;;;;;;2.47;1.92;;;;;16.70;98265.00;;;;5093428;28;20050;-67
2023/09/01 00:33:30;;;;;;;1.85;1.63;;;;;16.70;98265.00;;;;5094848;28;20067;-67
2023/09/01 00:35:58;;;;;;;1.95;1.75;;;;;16.70;98268.00;;;;5094571;28;20488;-67
2023/09/01 00:38:24;;;;;;;3.13;2.20;;;;;16.80;98261.00;;;;5093489;28;20090;-67
2023/09/01 00:40:52;;;;;;;3.35;2.58;;;;;16.80;98267.00;;;;5094657;28;20751;-67
2023/09/01 00:43:18;;;;;;;2.97;2.42;;;;;16.90;98269.00;;;;5093129;28;20044;-67
2023/09/01 00:45:45;;;;;;;4.30;3.47;;;;;17.00;98267.00;;;;5094753;28;20044;-67
2023/09/01 00:48:13;;;;;;;2.72;1.90;;;;;17.00;98267.00;;;;5093267;28;20143;-67
2023/09/01 00:50:41;;;;;;;4.05;2.72;;;;;17.00;98266.00;;;;5093155;28;20143;-67
2023/09/01 00:53:08;;;;;;;2.25;1.98;;;;;17.10;98262.00;;;;5093297;28;20412;-67
2023/09/01 00:55:36;;;;;;;1.92;1.80;;;;;17.10;98263.00;;;;5093199;28;20048;-67
2023/09/01 00:58:03;;;;;;;1.98;1.88;;;;;17.20;98259.00;;;;5094261;28;20077;-67
2023/09/01 01:00:32;;;;;;;2.13;1.67;;;;;17.20;98250.00;;;;5094461;28;20056;-67
2023/09/01 01:03:04;;;;;;;2.00;1.80;;;;;17.20;98256.00;;;;5093452;28;20485;-67
2023/09/01 01:05:51;;;;;;;1.63;1.52;;;;;17.30;98252.00;;;;5092936;28;20576;-67
2023/09/01 01:08:30;;;;;;;2.90;1.90;;;;;17.30;98254.00;;;;5075754;28;20121;-67
2023/09/01 01:11:09;;;;;;;1.90;1.70;;;;;17.30;98243.00;;;;5076049;28;20555;-67
2023/09/01 01:13:40;;;;;;;2.47;2.15;;;;;17.30;98250.00;;;;5076365;28;20084;-67
2023/09/01 01:16:07;;;;;;;2.97;1.60;;;;;17.30;98249.00;;;;5092770;28;20044;-66
2023/09/01 01:18:37;;;;;;;4.03;1.90;;;;;17.30;98239.00;;;;5092648;28;20430;-66
2023/09/01 01:21:11;;;;;;;4.38;1.83;;;;;17.30;98246.00;;;;5075738;28;20059;-66
2023/09/01 01:23:39;;;;;;;2.83;1.80;;;;;17.30;98237.00;;;;5092770;28;20048;-66
2023/09/01 01:26:08;;;;;;;3.30;1.63;;;;;17.30;98234.00;;;;5093751;28;20044;-66
2023/09/01 01:28:34;;;;;;;2.45;1.70;;;;;17.30;98230.00;;;;5093745;28;20044;-66
2023/09/01 01:31:02;;;;;;;2.67;1.80;;;;;17.40;98238.00;;;;5093586;28;20040;-67
2023/09/01 01:33:52;;;;;;;3.97;1.95;;;;;17.30;98242.00;;;;5093733;28;20043;-66
2023/09/01 01:36:40;;;;;;;3.05;1.80;;;;;17.30;98239.00;;;;5092419;28;20097;-66
2023/09/01 01:39:15;;;;;;;2.15;1.95;;;;;17.30;98236.00;;;;5092268;28;20040;-66
2023/09/01 01:41:54;;;;;;;3.30;2.20;;;;;17.30;98238.00;;;;5094154;28;20123;-67
2023/09/01 01:44:34;;;;;;;2.78;2.05;;;;;17.40;98248.00;;;;5092248;28;20122;-67
2023/09/01 01:47:02;;;;;;;4.68;1.90;;;;;17.30;98230.00;;;;5092145;28;20146;-67
2023/09/01 01:49:30;;;;;;;2.28;1.88;;;;;17.30;98235.00;;;;5091977;28;20044;-67
2023/09/01 01:51:58;;;;;;;3.17;1.75;;;;;17.40;98233.00;;;;5075303;28;20488;-67
2023/09/01 01:54:25;;;;;;;2.92;1.92;;;;;17.40;98235.00;;;;5093256;28;20044;-67
2023/09/01 01:56:52;;;;;;;2.88;1.60;;;;;17.40;98236.00;;;;5093226;28;20098;-67
2023/09/01 01:59:19;;;;;;;3.03;2.08;;;;;17.40;98226.00;;;;5091734;28;20063;-67
2023/09/01 02:01:45;;;;;;;2.42;2.15;;;;;17.50;98232.00;;;;5091896;28;20043;-66
2023/09/01 02:04:12;;;;;;;2.03;1.77;;;;;17.50;98228.00;;;;5093221;28;20048;-66
2023/09/01 02:06:38;;;;;;;1.95;1.80;;;;;17.50;98230.00;;;;5092068;28;20073;-66
2023/09/01 02:09:09;;;;;;;2.80;1.90;;;;;17.60;98232.00;;;;5092007;28;20044;-67
2023/09/01 02:11:36;;;;;;;2.72;1.88;;;;;17.50;98242.00;;;;5091869;28;20052;-66
2023/09/01 02:14:03;;;;;;;4.28;2.55;;;;;17.50;98242.00;;;;5092969;28;20086;-67
2023/09/01 02:16:30;;;;;;;1.63;1.52;;;;;17.50;98234.00;;;;5093125;28;20086;-67
2023/09/01 02:18:57;;;;;;;3.08;1.90;;;;;17.60;98248.00;;;;5091794;28;20052;-67
2023/09/01 02:21:25;;;;;;;2.97;1.83;;;;;17.60;98240.00;;;;5091695;28;20489;-68
2023/09/01 02:23:52;;;;;;;3.40;2.03;;;;;17.60;98233.00;;;;5092844;28;20106;-67
2023/09/01 02:26:19;;;;;;;5.57;1.92;;;;;17.60;98240.00;;;;5091692;28;20048;-67
2023/09/01 02:28:48;;;;;;;1.73;1.58;;;;;17.60;98243.00;;;;5091392;28;20047;-66
2023/09/01 02:31:14;;;;;;;1.75;1.65;;;;;17.60;98234.00;;;;5092146;28;20120;-67
2023/09/01 02:33:42;;;;;;;4.60;1.95;;;;;17.60;98238.00;;;;5093066;28;20097;-67
2023/09/01 02:36:32;;;;;;;2.45;1.73;;;;;17.60;98239.00;;;;5092538;28;20040;-67
2023/09/01 02:39:00;;;;;;;3.90;1.90;;;;;17.60;98239.00;;;;5091371;28;20070;-67
2023/09/01 02:41:28;;;;;;;5.30;2.35;;;;;17.70;98232.00;;;;5091433;28;20093;-67
2023/09/01 02:43:55;;;;;;;4.72;2.58;;;;;17.70;98241.00;;;;5090959;28;20390;-67
2023/09/01 02:46:22;;;;;;;3.60;2.03;;;;;17.70;98243.00;;;;5091260;28;20040;-67
2023/09/01 02:48:50;;;;;;;3.05;2.33;;;;;17.70;98240.00;;;;5092600;28;20106;-67
2023/09/01 02:51:17;;;;;;;3.50;1.90;;;;;17.80;98239.00;;;;5091049;28;20048;-67
2023/09/01 02:53:44;;;;;;;3.30;2.20;;;;;17.80;98236.00;;;;5091109;28;20078;-67
2023/09/01 02:56:10;;;;;;;3.67;2.75;;;;;17.80;98238.00;;;;5092417;28;20048;-67
2023/09/01 02:58:37;;;;;;;4.45;2.50;;;;;17.80;98238.00;;;;5092486;28;20552;-68
2023/09/01 03:01:08;;;;;;;4.72;2.42;;;;;17.80;98251.00;;;;5091113;28;20521;-67
2023/09/01 03:03:36;;;;;;;3.90;2.80;;;;;17.80;98241.00;;;;5091103;28;20550;-68
2023/09/01 03:06:05;;;;;;;5.78;2.60;;;;;17.90;98253.00;;;;5091971;28;20062;-68
2023/09/01 03:08:32;;;;;;;3.88;2.53;;;;;17.90;98244.00;;;;5090827;28;20056;-67
2023/09/01 03:11:00;;;;;;;4.53;2.70;;;;;17.90;98240.00;;;;5090813;28;20093;-67
2023/09/01 03:13:27;;;;;;;8.43;3.10;;;;;17.90;98242.00;;;;5091091;28;20044;-68
2023/09/01 03:15:57;;;;;;;3.92;2.95;;;;;17.90;98236.00;;;;5074279;28;20603;-67
2023/09/01 03:18:24;;;;;;;5.95;2.60;;;;;17.90;98243.00;;;;5091164;28;20067;-68
2023/09/01 03:20:53;;;;;;;5.78;3.28;;;;;17.90;98241.00;;;;5090891;28;20497;-67
2023/09/01 03:23:20;;;;;;;3.28;2.97;;;;;17.90;98243.00;;;;5090563;28;20040;-67
2023/09/01 03:25:55;;;;;;;5.07;3.40;;;;;17.90;98246.00;;;;5090591;28;20044;-67
2023/09/01 03:28:23;;;;;;;4.68;2.60;;;;;17.90;98250.00;;;;5090892;28;20048;-67
2023/09/01 03:30:50;;;;;;;6.90;3.55;;;;;17.90;98246.00;;;;5092001;28;20040;-68
2023/09/01 03:33:18;;;;;;;5.30;2.65;;;;;17.90;98245.00;;;;5090789;28;20091;-67
2023/09/01 03:35:45;;;;;;;7.18;3.13;;;;;17.90;98247.00;;;;5091767;28;20130;-66
2023/09/01 03:38:11;;;;;;;5.97;3.00;;;;;18.00;98246.00;;;;5091811;28;20044;-67
2023/09/01 03:40:38;;;;;;;3.55;2.78;;;;;18.00;98247.00;;;;5090447;28;20044;-67
2023/09/01 03:43:07;;;;;;;5.93;3.13;;;;;18.10;98246.00;;;;5092523;28;20126;-66
2023/09/01 03:45:33;;;;;;;4.38;2.90;;;;;18.10;98248.00;;;;5095481;28;20040;-67
2023/09/01 03:48:00;;;;;;;3.65;3.33;;;;;18.20;98248.00;;;;5095692;28;20180;-67
2023/09/01 03:50:28;;;;;;;8.77;4.57;;;;;18.20;98253.00;;;;5093905;28;20139;-67
2023/09/01 03:52:54;;;;;;;7.18;4.35;;;;;18.10;98249.00;;;;5094515;28;20492;-68
2023/09/01 03:55:21;;;;;;;3.10;2.80;;;;;18.10;98252.00;;;;5094449;28;20040;-68
2023/09/01 03:57:47;;;;;;;3.40;2.67;;;;;18.20;98250.00;;;;5094390;28;20146;-67
2023/09/01 04:00:15;;;;;;;3.67;2.78;;;;;18.20;98253.00;;;;5094003;28;20044;-67
2023/09/01 04:02:41;;;;;;;3.45;2.58;;;;;18.20;98251.00;;;;5095564;28;20097;-68
2023/09/01 04:05:09;;;;;;;3.95;2.70;;;;;18.20;98245.00;;;;5093572;28;20048;-68
2023/09/01 04:07:35;;;;;;;5.90;2.83;;;;;18.20;98253.00;;;;5095478;28;20048;-68
2023/09/01 04:10:04;;;;;;;6.57;2.88;;;;;18.20;98245.00;;;;5093843;28;20056;-68
2023/09/01 04:12:34;;;;;;;4.40;3.00;;;;;18.20;98254.00;;;;5095148;28;20040;-68
2023/09/01 04:15:00;;;;;;;3.83;3.03;;;;;18.10;98252.00;;;;5095139;28;20119;-69
2023/09/01 04:17:27;;;;;;;4.55;3.15;;;;;18.10;98251.00;;;;5093970;28;20424;-68
2023/09/01 04:19:54;;;;;;;4.32;3.10;;;;;18.10;98252.00;;;;5094679;28;20039;-68
2023/09/01 04:22:21;;;;;;;5.78;3.33;;;;;18.10;98252.00;;;;5093780;28;20093;-68
2023/09/01 04:24:47;;;;;;;5.13;3.08;;;;;18.10;98252.00;;;;5093556;28;20044;-68
2023/09/01 04:27:14;;;;;;;4.57;3.25;;;;;18.10;98265.00;;;;5094889;28;20106;-68
2023/09/01 04:29:41;;;;;;;6.63;3.50;;;;;18.20;98258.00;;;;5093450;28;20496;-68
2023/09/01 04:32:23;;;;;;;4.97;3.05;;;;;18.10;98259.00;;;;5093762;28;20519;-68
2023/09/01 04:34:49;;;;;;;5.40;3.65;;;;;18.20;98266.00;;;;5093304;28;20055;-68
2023/09/01 04:37:16;;;;;;;5.53;2.83;;;;;18.10;98259.00;;;;5076814;28;20045;-68
2023/09/01 04:39:43;;;;;;;5.30;2.90;;;;;18.10;98262.00;;;;5092950;28;20058;-68
2023/09/01 04:42:09;;;;;;;5.13;3.47;;;;;18.10;98256.00;;;;5094516;28;20040;-68
2023/09/01 04:44:36;;;;;;;9.07;3.78;;;;;18.10;98264.00;;;;5093262;28;20132;-68
2023/09/01 04:47:03;;;;;;;5.07;3.70;;;;;18.10;98262.00;;;;5092984;28;20504;-68
2023/09/01 04:49:31;;;;;;;5.13;4.20;;;;;18.10;98270.00;;;;5092862;28;20048;-68
2023/09/01 04:51:58;;;;;;;4.88;3.88;;;;;18.10;98262.00;;;;5093187;28;20404;-68
2023/09/01 04:54:25;;;;;;;5.78;4.40;;;;;18.10;98264.00;;;;5092761;28;20079;-67
2023/09/01 04:56:52;;;;;;;6.13;4.50;;;;;18.10;98273.00;;;;5092943;28;20512;-66
2023/09/01 04:59:18;;;;;;;5.32;4.03;;;;;18.10;98269.00;;;;5092784;28;20044;-65
2023/09/01 05:01:46;;;;;;;5.00;4.50;;;;;18.10;98273.00;;;;5076339;28;20056;-66
2023/09/01 05:04:15;;;;;;;4.80;4.32;;;;;18.10;98278.00;;;;5094258;28;20509;-65
2023/09/01 05:06:42;;;;;;;6.28;4.32;;;;;18.10;98284.00;;;;5094087;28;20036;-65
2023/09/01 05:09:08;;;;;;;12.57;5.30;;;;;18.10;98275.00;;;;5092796;28;20489;-65
2023/09/01 05:11:35;;;;;;;7.15;5.30;;;;;18.10;98282.00;;;;5092702;28;20144;-65
2023/09/01 05:14:01;;;;;;;9.70;4.65;;;;;18.20;98273.00;;;;5092785;28;20115;-65
2023/09/01 05:16:28;;;;;;;5.95;4.60;;;;;18.20;98274.00;;;;5092960;28;20055;-65
2023/09/01 05:18:55;;;;;;;6.53;4.40;;;;;18.20;98283.00;;;;5092713;28;20044;-65
2023/09/01 05:21:22;;;;;;;8.55;5.18;;;;;18.20;98272.00;;;;5092016;28;20142;-67
2023/09/01 05:23:49;;;;;;;6.90;4.32;;;;;18.20;98273.00;;;;5092375;28;20040;-65
2023/09/01 05:26:16;;;;;;;5.97;4.57;;;;;18.30;98275.00;;;;5093314;28;20044;-66
2023/09/01 05:28:42;;;;;;;7.30;4.03;;;;;18.30;98280.00;;;;5076385;28;20055;-67
2023/09/01 05:31:09;;;;;;;5.22;4.05;;;;;18.30;98284.00;;;;5093590;28;20040;-66
2023/09/01 05:33:41;;;;;;;5.97;3.55;;;;;18.30;98281.00;;;;5092441;28;20032;-66
2023/09/01 05:36:07;;;;;;;4.60;4.15;;;;;18.30;98288.00;;;;5093534;28;20071;-66
2023/09/01 05:38:34;;;;;;;5.20;4.43;;;;;18.30;98290.00;;;;5093606;28;20079;-66
2023/09/01 05:41:02;;;;;;;6.32;3.78;;;;;18.30;98290.00;;;;5091846;28;20048;-66
2023/09/01 05:43:29;;;;;;;7.60;3.80;;;;;18.30;98293.00;;;;5092054;28;20131;-66
2023/09/01 05:45:55;;;;;;;4.85;3.70;;;;;18.30;98290.00;;;;5091990;28;20048;-66
2023/09/01 05:48:25;;;;;;;5.55;3.45;;;;;18.30;98297.00;;;;5091898;28;20075;-67
2023/09/01 05:50:52;;;;;;;4.88;3.25;;;;;18.30;98292.00;;;;5091563;28;20047;-66
2023/09/01 05:53:20;;;;;;;3.72;3.42;;;;;18.30;98298.00;;;;5092021;28;20040;-66
2023/09/01 05:55:47;;;;;;;4.22;3.28;;;;;18.30;98298.00;;;;5092035;28;20148;-66
2023/09/01 05:58:14;;;;;;;4.15;2.92;;;;;18.40;98303.00;;;;5091923;28;20056;-66
2023/09/01 06:00:41;;;;;;;4.05;2.83;;;;;18.40;98304.00;;;;5092881;28;20044;-66
2023/09/01 06:03:07;;;;;;;3.40;2.17;;;;;18.40;98309.00;;;;5093039;28;20036;-65
2023/09/01 06:05:34;;;;;;;2.88;2.67;;;;;18.50;98303.00;;;;5092597;28;20044;-65
2023/09/01 06:08:00;;;;;;;3.28;2.38;;;;;18.50;98312.00;;;;5091658;28;20043;-65
2023/09/01 06:10:27;;;;;;;4.15;2.33;;;;;18.60;98323.00;;;;5093174;28;20409;-68
2023/09/01 06:12:54;;;;;;;4.45;2.53;;;;;18.60;98328.00;;;;5092854;28;20055;-65
2023/09/01 06:15:20;;;;;;;2.42;2.20;;;;;18.60;98328.00;;;;5092827;28;20570;-65
2023/09/01 06:17:47;;;;;;;2.70;2.40;;;;;18.70;98325.00;;;;5092889;28;20086;-65
2023/09/01 06:20:14;;;;;;;2.53;2.13;;;;;18.70;98326.00;;;;5092277;28;20497;-65
2023/09/01 06:22:45;;;;;;;2.88;2.53;;;;;18.70;98330.00;;;;5092683;28;20040;-65
2023/09/01 06:25:11;;;;;;;3.00;2.70;;;;;18.70;98332.00;;;;5091550;28;20044;-65
2023/09/01 06:27:38;;;;;;;4.88;2.67;;;;;18.70;98332.00;;;;5093017;28;20521;-64
2023/09/01 06:30:06;;;;;;;2.60;2.38;;;;;18.70;98335.00;;;;5093058;28;20063;-64
2023/09/01 06:32:33;;;;;;;5.70;2.90;;;;;18.80;98335.00;;;;5092668;28;20489;-65
2023/09/01 06:34:59;;;;;;;4.70;2.95;;;;;18.80;98335.00;;;;5092317;28;20043;-65
2023/09/01 06:37:26;;;;;;;4.05;2.80;;;;;18.90;98340.00;;;;5091583;28;20079;-64
2023/09/01 06:39:53;;;;;;;5.32;3.38;;;;;19.00;98333.00;;;;5092286;28;20040;-65
2023/09/01 06:42:19;;;;;;;3.70;2.78;;;;;19.10;98335.00;;;;5092451;28;20044;-64
2023/09/01 06:44:46;;;;;;;9.00;3.00;;;;;19.20;98334.00;;;;5092285;28;20082;-66
2023/09/01 06:47:12;;;;;;;5.88;2.80;;;;;19.40;98334.00;;;;5092707;28;20126;-67
2023/09/01 06:49:39;;;;;;;6.18;3.28;;;;;19.40;98342.00;;;;5091945;28;20135;-67
2023/09/01 06:52:05;;;;;;;4.93;3.00;;;;;19.50;98335.00;;;;5092443;28;20119;-67
2023/09/01 06:54:32;;;;;;;3.22;2.80;;;;;19.60;98327.00;;;;5092463;28;20131;-66
2023/09/01 06:56:59;;;;;;;5.32;2.92;;;;;19.60;98336.00;;;;5092141;28;20052;-67
2023/09/01 06:59:25;;;;;;;4.78;2.55;;;;;19.60;98338.00;;;;5092223;28;20044;-67
2023/09/01 07:01:52;;;;;;;3.92;3.28;;;;;19.60;98337.00;;;;5092962;28;20485;-68
2023/09/01 07:04:18;;;;;;;4.60;3.03;;;;;19.50;98340.00;;;;5092747;28;20428;-68
2023/09/01 07:06:45;;;;;;;3.10;2.78;;;;;19.40;98335.00;;;;5093067;28;20104;-67
2023/09/01 07:09:12;;;;;;;4.28;3.67;;;;;19.40;98345.00;;;;5093324;28;20127;-69
2023/09/01 07:11:38;;;;;;;3.97;3.10;;;;;19.40;98343.00;;;;5092883;28;20071;-67
2023/09/01 07:14:07;;;;;;;3.38;3.05;;;;;19.40;98342.00;;;;5092398;28;20098;-67
2023/09/01 07:16:34;;;;;;;3.15;2.83;;;;;19.40;98339.00;;;;5091211;28;20193;-68
2023/09/01 07:19:00;;;;;;;7.97;4.35;;;;;19.60;98338.00;;;;5095347;28;20078;-68
2023/09/01 07:21:27;;;;;;;4.13;3.10;;;;;19.80;98338.00;;;;5095916;28;20233;-69
2023/09/01 07:23:53;;;;;;;3.50;2.78;;;;;19.90;98324.00;;;;5096798;28;20036;-69
2023/09/01 07:26:20;;;;;;;4.22;2.80;;;;;20.10;98327.00;;;;5096580;28;20072;-68
2023/09/01 07:28:47;;;;;;;3.60;3.30;;;;;20.20;98332.00;;;;5095357;28;20050;-68
2023/09/01 07:31:13;;;;;;;4.13;2.88;;;;;20.20;98336.00;;;;5096193;28;20036;-66
2023/09/01 07:33:41;;;;;;;8.20;4.00;;;;;20.30;98337.00;;;;5095165;28;20076;-66
2023/09/01 07:36:12;;;;;;;5.53;4.40;;;;;20.30;98344.00;;;;5095894;28;20044;-66
2023/09/01 07:38:38;;;;;;;8.68;3.30;;;;;20.20;98342.00;;;;5095011;28;20048;-67
2023/09/01 07:41:06;;;;;;;3.50;2.63;;;;;20.20;98345.00;;;;5095788;28;20048;-67
2023/09/01 07:43:33;;;;;;;7.45;4.90;;;;;20.20;98347.00;;;;5095725;28;20072;-68
2023/09/01 07:46:00;;;;;;;3.58;2.70;;;;;20.20;98355.00;;;;5094635;28;20044;-67
2023/09/01 07:48:27;;;;;;;4.90;2.88;;;;;20.10;98346.00;;;;5096023;28;20057;-68
2023/09/01 07:50:55;;;;;;;5.03;3.63;;;;;20.00;98342.00;;;;5095658;28;20043;-66
2023/09/01 07:53:21;;;;;;;4.22;2.78;;;;;20.00;98340.00;;;;5095573;28;20043;-67
2023/09/01 07:55:48;;;;;;;6.05;3.00;;;;;20.10;98347.00;;;;5095609;28;20051;-66
2023/09/01 07:58:15;;;;;;;6.47;2.90;;;;;20.10;98350.00;;;;5095581;28;20534;-67
2023/09/01 08:00:42;;;;;;;6.22;2.58;;;;;20.10;98353.00;;;;5095229;28;20044;-67
2023/09/01 08:03:12;;;;;;;7.53;3.22;;;;;20.00;98356.00;;;;5094305;28;20414;-68
2023/09/01 08:05:39;;;;;;;6.38;2.60;;;;;20.00;98354.00;;;;5093856;28;20520;-70
2023/09/01 08:08:06;;;;;;;4.38;2.67;;;;;20.00;98354.00;;;;5095574;28;20127;-69
2023/09/01 08:10:33;;;;;;;6.68;2.58;;;;;20.10;98346.00;;;;5077162;28;20054;-69
2023/09/01 08:13:00;;;;;;;4.38;2.72;;;;;20.20;98353.00;;;;5095693;28;20123;-68
2023/09/01 08:15:26;;;;;;;3.55;2.13;;;;;20.30;98358.00;;;;5093944;28;20048;-68
2023/09/01 08:17:54;;;;;;;5.07;2.42;;;;;20.40;98362.00;;;;5095191;28;20040;-69
2023/09/01 08:20:22;;;;;;;4.75;2.20;;;;;20.50;98359.00;;;;5093481;28;20542;-69
2023/09/01 08:22:49;;;;;;;2.90;2.10;;;;;20.50;98360.00;;;;5095218;28;20071;-68
2023/09/01 08:25:15;;;;;;;2.40;1.67;;;;;20.60;98361.00;;;;5094840;28;20071;-69
2023/09/01 08:27:42;;;;;;;2.25;2.05;;;;;20.70;98352.00;;;;5095801;28;20477;-68
2023/09/01 08:30:10;;;;;;;3.47;1.77;;;;;20.70;98359.00;;;;5096293;28;20073;-68
2023/09/01 08:32:43;;;;;;;3.67;1.88;;;;;20.80;98352.00;;;;5097185;28;20044;-68
2023/09/01 08:35:11;;;;;;;3.40;1.80;;;;;20.70;98357.00;;;;5096899;28;20044;-68
2023/09/01 08:37:39;;;;;;;2.75;2.10;;;;;20.70;98367.00;;;;5096328;28;20040;-68
2023/09/01 08:40:09;;;;;;;5.03;3.05;;;;;20.60;98371.00;;;;5096303;28;20488;-68
2023/09/01 08:42:37;;;;;;;2.88;1.58;;;;;20.60;98367.00;;;;5096737;28;20051;-68
2023/09/01 08:45:04;;;;;;;6.07;1.92;;;;;20.80;98368.00;;;;5096440;28;20497;-68
2023/09/01 08:47:42;;;;;;;2.13;1.80;;;;;20.90;98367.00;;;;5096329;28;20044;-68
2023/09/01 08:50:08;;;;;;;4.93;1.50;;;;;21.00;98367.00;;;;5097599;28;20036;-68
2023/09/01 08:52:35;;;;;;;2.53;1.80;;;;;21.00;98369.00;;;;5097418;28;20386;-67
2023/09/01 08:55:02;;;;;;;5.75;2.20;;;;;21.00;98375.00;;;;5096994;28;20091;-68
2023/09/01 08:57:29;;;;;;;5.20;2.40;;;;;21.10;98378.00;;;;5095518;28;20457;-68
2023/09/01 08:59:56;;;;;;;3.10;2.13;;;;;21.10;98375.00;;;;5095483;28;20074;-68
2023/09/01 09:02:22;;;;;;;3.90;1.73;;;;;21.20;98375.00;;;;5096714;28;20064;-68
2023/09/01 09:04:49;;;;;;;3.10;1.60;;;;;21.10;98371.00;;;;5096533;28;20101;-68
2023/09/01 09:07:18;;;;;;;3.80;2.17;;;;;21.00;98367.00;;;;5097985;28;20040;-66
2023/09/01 09:09:59;;;;;;;2.17;1.58;;;;;20.90;98368.00;;;;5100113;28;20044;-67
2023/09/01 09:12:37;;;;;;;1.30;1.20;;;;;20.90;98372.00;;;;5098732;28;20494;-67
2023/09/01 09:15:05;;;;;;;5.20;1.60;;;;;20.90;98369.00;;;;5099739;28;20071;-67
2023/09/01 09:17:46;;;;;;;3.00;1.70;;;;;20.90;98365.00;;;;5097101;28;20493;-66
2023/09/01 09:20:14;;;;;;;2.13;1.80;;;;;20.80;98367.00;;;;5095646;28;20098;-66
2023/09/01 09:22:56;;;;;;;2.03;1.73;;;;;20.80;98368.00;;;;5095831;28;20058;-66
2023/09/01 09:25:28;;;;;;;3.53;2.10;;;;;20.80;98374.00;;;;5096938;28;20040;-66
2023/09/01 09:27:58;;;;;;;3.30;1.83;;;;;21.00;98364.00;;;;5098096;28;20097;-66
2023/09/01 09:30:26;;;;;;;4.20;2.40;;;;;21.10;98368.00;;;;5097459;28;20048;-66
2023/09/01 09:33:06;;;;;;;8.77;6.53;;;;;21.30;98366.00;;;;5098666;28;20036;-66
2023/09/01 09:35:36;;;;;;;4.68;2.47;;;;;21.40;98365.00;;;;5096876;28;20040;-66
2023/09/01 09:38:04;;;;;;;4.85;2.47;;;;;21.40;98379.00;;;;5095157;28;20566;-66
2023/09/01 09:40:31;;;;;;;7.32;4.93;;;;;21.50;98374.00;;;;5093093;28;20036;-66
2023/09/01 09:42:59;;;;;;;5.30;3.05;;;;;21.40;98380.00;;;;5092461;28;20135;-66
2023/09/01 09:45:27;;;;;;;2.75;2.15;;;;;21.20;98388.00;;;;5093275;28;20051;-66
2023/09/01 09:47:56;;;;;;;2.20;1.65;;;;;21.10;98386.00;;;;5093742;28;20509;-66
2023/09/01 09:50:24;;;;;;;1.73;1.63;;;;;21.10;98381.00;;;;5093229;28;20493;-66
2023/09/01 09:52:59;;;;;;;7.38;3.78;;;;;21.20;98389.00;;;;5093282;28;20040;-66
2023/09/01 09:55:30;;;;;;;1.85;1.63;;;;;21.10;98385.00;;;;5093152;28;20098;-66
2023/09/01 09:58:02;;;;;;;2.40;1.67;;;;;21.00;98396.00;;;;5093370;28;20071;-66
2023/09/01 10:00:31;;;;;;;3.30;2.22;;;;;21.00;98396.00;;;;5093153;28;20052;-66
2023/09/01 10:03:01;;;;;;;2.03;1.85;;;;;21.00;98392.00;;;;5091644;28;20044;-66
2023/09/01 10:05:34;;;;;;;2.95;1.35;;;;;20.90;98388.00;;;;5093261;28;20416;-67
2023/09/01 10:08:03;;;;;;;1.92;1.40;;;;;21.10;98386.00;;;;5093289;28;20516;-65
2023/09/01 10:10:33;;;;;;;1.95;1.27;;;;;21.40;98371.00;;;;5092888;28;20051;-66
2023/09/01 10:13:06;;;;;;;3.67;1.60;;;;;21.90;98361.00;;;;5092979;28;20105;-67
2023/09/01 10:15:34;;;;;;;2.83;1.55;;;;;22.30;98355.00;;;;5092905;28;20503;-66
2023/09/01 10:18:03;;;;;;;2.67;1.80;;;;;22.70;98362.00;;;;5091411;28;20055;-66
2023/09/01 10:20:32;;;;;;;1.45;1.00;;;;;22.90;98359.00;;;;5092601;28;20040;-66
2023/09/01 10:23:01;;;;;;;2.72;1.13;;;;;22.90;98372.00;;;;5092974;28;20365;-66
2023/09/01 10:25:28;;;;;;;2.55;1.33;;;;;22.90;98376.00;;;;5092755;28;20552;-69
2023/09/01 10:28:05;;;;;;;2.22;1.20;;;;;22.80;98375.00;;;;5092770;28;20119;-67
2023/09/01 10:30:37;;;;;;;3.38;1.92;;;;;22.70;98371.00;;;;5092378;28;20044;-67
2023/09/01 10:33:12;;;;;;;1.23;1.13;;;;;22.60;98375.00;;;;5092714;28;20127;-67
2023/09/01 10:35:41;;;;;;;1.35;1.25;;;;;22.60;98367.00;;;;5092487;28;20036;-67
2023/09/01 10:38:17;;;;;;;2.03;1.25;;;;;22.80;98357.00;;;;5092789;28;20039;-67
2023/09/01 10:40:54;;;;;;;1.63;1.13;;;;;23.00;98358.00;;;;5092496;28;20044;-67
2023/09/01 10:43:41;;;;;;;3.42;1.45;;;;;23.40;98349.00;;;;5092559;28;20123;-67
2023/09/01 10:46:14;;;;;;;1.40;1.13;;;;;23.60;98361.00;;;;5082037;28;20055;-67
2023/09/01 10:48:51;;;;;;;2.78;1.50;;;;;23.70;98356.00;;;;5092351;28;20090;-67
2023/09/01 10:51:28;;;;;;;1.70;1.00;;;;;23.50;98375.00;;;;5092247;28;20130;-67
2023/09/01 10:53:56;;;;;;;2.78;1.75;;;;;23.10;98381.00;;;;5092289;28;20044;-68
2023/09/01 10:56:24;;;;;;;1.83;1.00;;;;;22.70;98381.00;;;;5092305;28;20040;-68
2023/09/01 10:58:56;;;;;;;1.77;1.33;;;;;22.40;98381.00;;;;5092258;28;20477;-67
2023/09/01 11:01:28;;;;;;;2.45;1.20;;;;;22.10;98375.00;;;;5092093;28;20374;-69
2023/09/01 11:03:56;;;;;;;1.75;1.27;;;;;22.10;98380.00;;;;5091216;28;20483;-69
2023/09/01 11:06:23;;;;;;;1.48;1.13;;;;;22.00;98384.00;;;;5092080;28;20550;-69
2023/09/01 11:08:59;;;;;;;1.85;1.35;;;;;22.30;98374.00;;;;5092090;28;20051;-68
2023/09/01 11:11:27;;;;;;;3.45;1.50;;;;;22.40;98378.00;;;;5092019;28;20047;-69
2023/09/01 11:13:59;;;;;;;2.10;1.27;;;;;22.60;98378.00;;;;5090935;28;20128;-70
2023/09/01 11:16:25;;;;;;;2.25;1.00;;;;;22.70;98375.00;;;;5092325;28;20123;-69
2023/09/01 11:19:02;;;;;;;2.40;1.63;;;;;22.80;98378.00;;;;5091146;28;20048;-68
2023/09/01 11:21:30;;;;;;;2.00;0.90;;;;;22.90;98378.00;;;;5092002;28;20140;-69
2023/09/01 11:23:59;;;;;;;1.80;1.00;;;;;23.00;98395.00;;;;5092150;28;20467;-68
2023/09/01 11:26:26;;;;;;;2.25;0.93;;;;;22.80;98383.00;;;;5092207;28;20389;-68
2023/09/01 11:28:55;;;;;;;1.02;0.90;;;;;22.70;98384.00;;;;5090835;28;20519;-69
2023/09/01 11:31:22;;;;;;;5.35;1.40;;;;;22.80;98383.00;;;;5091903;28;20127;-68
2023/09/01 11:33:53;;;;;;;2.05;1.00;;;;;22.80;98384.00;;;;5092155;28;20550;-70
2023/09/01 11:36:20;;;;;;;2.67;0.80;;;;;23.10;98380.00;;;;5091010;28;20119;-68
2023/09/01 11:38:47;;;;;;;1.17;0.90;;;;;23.30;98372.00;;;;5092077;28;20131;-68
2023/09/01 11:41:18;;;;;;;1.27;1.17;;;;;23.50;98380.00;;;;5091585;28;20501;-68
2023/09/01 11:43:45;;;;;;;1.50;0.90;;;;;23.70;98369.00;;;;5092148;28;20055;-68
2023/09/01 11:46:13;;;;;;;3.10;1.70;;;;;23.90;98390.00;;;;5091636;28;20067;-68
2023/09/01 11:48:40;;;;;;;2.72;1.58;;;;;24.00;98387.00;;;;5092029;28;20044;-68
2023/09/01 11:51:08;;;;;;;3.03;1.40;;;;;24.00;98391.00;;;;5091441;28;20416;-68
2023/09/01 11:53:36;;;;;;;1.33;1.08;;;;;23.90;98402.00;;;;5092054;28;20044;-68
2023/09/01 11:56:19;;;;;;;1.65;1.13;;;;;23.70;98414.00;;;;5091811;28;20060;-68
2023/09/01 11:58:52;;;;;;;1.85;0.70;;;;;23.40;98405.00;;;;5090411;28;20066;-69
2023/09/01 12:01:20;;;;;;;2.08;1.08;;;;;23.30;98406.00;;;;5090598;28;20447;-69
2023/09/01 12:03:52;;;;;;;2.15;1.23;;;;;23.10;98419.00;;;;5091337;28;20040;-68
2023/09/01 12:06:19;;;;;;;1.42;0.80;;;;;22.90;98418.00;;;;5094342;28;20382;-68
2023/09/01 12:08:48;;;;;;;1.85;1.25;;;;;22.80;98420.00;;;;5095374;28;20064;-69
2023/09/01 12:11:16;;;;;;;1.73;1.10;;;;;22.80;98423.00;;;;5095339;28;20051;-68
2023/09/01 12:13:43;;;;;;;2.25;1.17;;;;;22.80;98430.00;;;;5095436;28;20044;-68
2023/09/01 12:16:20;;;;;;;2.05;0.77;;;;;23.00;98425.00;;;;5095209;28;20048;-68
2023/09/01 12:18:48;;;;;;;1.25;1.02;;;;;23.30;98418.00;;;;5094114;28;20481;-68
2023/09/01 12:21:14;;;;;;;1.25;1.15;;;;;23.60;98422.00;;;;5095049;28;20153;-68
2023/09/01 12:23:43;;;;;;;1.02;0.80;;;;;23.90;98427.00;;;;5077227;28;20101;-68
2023/09/01 12:26:11;;;;;;;2.17;1.15;;;;;24.00;98428.00;;;;5095227;28;20040;-68